sensor_id;sensor_type;location;lat;lon;timestamp;pressure;altitude;pressure_sealevel;temperature
34807;BMP280;18310;55.586;12.286;2023-07-13T00:02:15;101123.34;;;20.16
34807;BMP280;18310;55.586;12.286;2023-07-13T00:05:18;101124.53;;;20.15
34807;BMP280;18310;55.586;12.286;2023-07-13T00:08:23;101128.94;;;20.13
34807;BMP280;18310;55.586;12.286;2023-07-13T00:11:27;101122.25;;;20.06
34807;BMP280;18310;55.586;12.286;2023-07-13T00:14:30;101122.28;;;20.03
34807;BMP280;18310;55.586;12.286;2023-07-13T00:17:33;101115.25;;;19.95
34807;BMP280;18310;55.586;12.286;2023-07-13T00:20:36;101123.13;;;19.96
34807;BMP280;18310;55.586;12.286;2023-07-13T00:23:42;101120.00;;;19.94
34807;BMP280;18310;55.586;12.286;2023-07-13T00:26:46;101120.81;;;19.91
34807;BMP280;18310;55.586;12.286;2023-07-13T00:30:12;101114.13;;;19.89
34807;BMP280;18310;55.586;12.286;2023-07-13T00:33:15;101129.91;;;19.88
34807;BMP280;18310;55.586;12.286;2023-07-13T00:36:19;101130.34;;;19.87
34807;BMP280;18310;55.586;12.286;2023-07-13T00:39:23;101124.81;;;19.87
34807;BMP280;18310;55.586;12.286;2023-07-13T00:42:26;101127.16;;;19.85
34807;BMP280;18310;55.586;12.286;2023-07-13T00:49:16;101128.75;;;19.86
34807;BMP280;18310;55.586;12.286;2023-07-13T00:52:23;101130.34;;;19.87
34807;BMP280;18310;55.586;12.286;2023-07-13T00:55:26;101129.91;;;19.88
34807;BMP280;18310;55.586;12.286;2023-07-13T00:58:30;101130.69;;;19.89
34807;BMP280;18310;55.586;12.286;2023-07-13T01:01:33;101130.31;;;19.90
34807;BMP280;18310;55.586;12.286;2023-07-13T01:04:40;101123.56;;;19.91
34807;BMP280;18310;55.586;12.286;2023-07-13T01:07:47;101132.28;;;19.90
34807;BMP280;18310;55.586;12.286;2023-07-13T01:10:52;101132.66;;;19.88
34807;BMP280;18310;55.586;12.286;2023-07-13T01:13:56;101133.47;;;19.89
34807;BMP280;18310;55.586;12.286;2023-07-13T01:16:59;101129.50;;;19.90
34807;BMP280;18310;55.586;12.286;2023-07-13T01:20:06;101133.06;;;19.90
34807;BMP280;18310;55.586;12.286;2023-07-13T01:23:12;101126.34;;;19.91
34807;BMP280;18310;55.586;12.286;2023-07-13T01:26:15;101133.81;;;19.94
34807;BMP280;18310;55.586;12.286;2023-07-13T01:29:19;101138.53;;;19.97
34807;BMP280;18310;55.586;12.286;2023-07-13T01:32:23;101148.00;;;20.00
34807;BMP280;18310;55.586;12.286;2023-07-13T01:35:27;101138.50;;;20.01
34807;BMP280;18310;55.586;12.286;2023-07-13T01:38:33;101143.19;;;20.04
34807;BMP280;18310;55.586;12.286;2023-07-13T01:41:36;101134.13;;;20.03
34807;BMP280;18310;55.586;12.286;2023-07-13T01:44:39;101138.03;;;20.06
34807;BMP280;18310;55.586;12.286;2023-07-13T01:47:42;101133.31;;;20.06
34807;BMP280;18310;55.586;12.286;2023-07-13T01:50:45;101137.25;;;20.05
34807;BMP280;18310;55.586;12.286;2023-07-13T01:53:50;101136.06;;;20.06
34807;BMP280;18310;55.586;12.286;2023-07-13T01:56:53;101125.03;;;20.03
34807;BMP280;18310;55.586;12.286;2023-07-13T01:59:56;101132.16;;;20.04
34807;BMP280;18310;55.586;12.286;2023-07-13T02:02:59;101128.22;;;20.01
34807;BMP280;18310;55.586;12.286;2023-07-13T02:06:03;101132.16;;;20.04
34807;BMP280;18310;55.586;12.286;2023-07-13T02:09:07;101131.41;;;20.00
34807;BMP280;18310;55.586;12.286;2023-07-13T02:12:10;101123.84;;;20.04
34807;BMP280;18310;55.586;12.286;2023-07-13T02:15:13;101127.81;;;20.03
34807;BMP280;18310;55.586;12.286;2023-07-13T02:18:17;101137.31;;;20.02
34807;BMP280;18310;55.586;12.286;2023-07-13T02:21:20;101127.44;;;20.01
34807;BMP280;18310;55.586;12.286;2023-07-13T02:24:24;101125.88;;;20.00
34807;BMP280;18310;55.586;12.286;2023-07-13T02:27:28;101127.88;;;19.96
34807;BMP280;18310;55.586;12.286;2023-07-13T02:30:31;101120.34;;;19.96
34807;BMP280;18310;55.586;12.286;2023-07-13T02:33:34;101123.91;;;19.97
34807;BMP280;18310;55.586;12.286;2023-07-13T02:36:37;101121.56;;;19.95
34807;BMP280;18310;55.586;12.286;2023-07-13T02:39:42;101122.72;;;19.98
34807;BMP280;18310;55.586;12.286;2023-07-13T02:42:45;101126.69;;;19.97
34807;BMP280;18310;55.586;12.286;2023-07-13T02:45:48;101129.84;;;19.95
34807;BMP280;18310;55.586;12.286;2023-07-13T02:48:52;101117.31;;;19.84
34807;BMP280;18310;55.586;12.286;2023-07-13T02:51:55;101131.03;;;19.94
34807;BMP280;18310;55.586;12.286;2023-07-13T02:55:00;101130.66;;;19.96
34807;BMP280;18310;55.586;12.286;2023-07-13T02:58:03;101126.31;;;19.95
34807;BMP280;18310;55.586;12.286;2023-07-13T03:01:08;101123.22;;;19.86
34807;BMP280;18310;55.586;12.286;2023-07-13T03:04:11;101118.81;;;19.92
34807;BMP280;18310;55.586;12.286;2023-07-13T03:07:15;101123.16;;;19.93
34807;BMP280;18310;55.586;12.286;2023-07-13T03:10:19;101131.03;;;19.94
34807;BMP280;18310;55.586;12.286;2023-07-13T03:13:23;101121.97;;;19.94
34807;BMP280;18310;55.586;12.286;2023-07-13T03:16:26;101131.03;;;19.94
34807;BMP280;18310;55.586;12.286;2023-07-13T03:19:29;101126.31;;;19.95
34807;BMP280;18310;55.586;12.286;2023-07-13T03:22:32;101129.06;;;19.95
34807;BMP280;18310;55.586;12.286;2023-07-13T03:25:36;101118.03;;;19.95
34807;BMP280;18310;55.586;12.286;2023-07-13T03:28:41;101118.00;;;19.98
34807;BMP280;18310;55.586;12.286;2023-07-13T03:31:44;101114.00;;;20.03
34807;BMP280;18310;55.586;12.286;2023-07-13T03:34:47;101125.41;;;20.09
34807;BMP280;18310;55.586;12.286;2023-07-13T03:37:50;101119.78;;;20.16
34807;BMP280;18310;55.586;12.286;2023-07-13T03:40:55;101135.53;;;20.22
34807;BMP280;18310;55.586;12.286;2023-07-13T03:43:58;101132.31;;;20.27
34807;BMP280;18310;55.586;12.286;2023-07-13T03:47:01;101125.56;;;20.32
34807;BMP280;18310;55.586;12.286;2023-07-13T03:50:05;101134.56;;;20.39
34807;BMP280;18310;55.586;12.286;2023-07-13T03:53:08;101132.25;;;20.34
34807;BMP280;18310;55.586;12.286;2023-07-13T03:56:14;101136.44;;;20.49
34807;BMP280;18310;55.586;12.286;2023-07-13T03:59:17;101132.41;;;20.57
34807;BMP280;18310;55.586;12.286;2023-07-13T04:02:20;101131.16;;;20.62
34807;BMP280;18310;55.586;12.286;2023-07-13T04:05:24;101129.13;;;20.70
34807;BMP280;18310;55.586;12.286;2023-07-13T04:08:27;101131.75;;;20.80
34807;BMP280;18310;55.586;12.286;2023-07-13T04:11:32;101135.59;;;20.90
34807;BMP280;18310;55.586;12.286;2023-07-13T04:14:38;101131.91;;;21.00
34807;BMP280;18310;55.586;12.286;2023-07-13T04:17:41;101135.16;;;21.22
34807;BMP280;18310;55.586;12.286;2023-07-13T04:21:08;101142.34;;;21.69
34807;BMP280;18310;55.586;12.286;2023-07-13T04:24:12;101149.44;;;22.20
34807;BMP280;18310;55.586;12.286;2023-07-13T04:27:15;101153.94;;;22.73
34807;BMP280;18310;55.586;12.286;2023-07-13T04:30:18;101144.66;;;23.35
34807;BMP280;18310;55.586;12.286;2023-07-13T04:33:22;101133.50;;;23.83
34807;BMP280;18310;55.586;12.286;2023-07-13T04:36:26;101150.41;;;24.50
34807;BMP280;18310;55.586;12.286;2023-07-13T04:39:29;101140.81;;;25.05
34807;BMP280;18310;55.586;12.286;2023-07-13T04:42:32;101141.94;;;25.54
34807;BMP280;18310;55.586;12.286;2023-07-13T04:45:36;101135.88;;;26.03
34807;BMP280;18310;55.586;12.286;2023-07-13T04:48:40;101138.53;;;26.49
34807;BMP280;18310;55.586;12.286;2023-07-13T04:51:44;101128.69;;;26.97
34807;BMP280;18310;55.586;12.286;2023-07-13T04:54:47;101133.63;;;27.42
34807;BMP280;18310;55.586;12.286;2023-07-13T04:57:50;101133.19;;;27.89
34807;BMP280;18310;55.586;12.286;2023-07-13T05:00:59;101139.66;;;28.31
34807;BMP280;18310;55.586;12.286;2023-07-13T05:04:02;101141.91;;;28.60
34807;BMP280;18310;55.586;12.286;2023-07-13T05:07:07;101146.28;;;28.94
34807;BMP280;18310;55.586;12.286;2023-07-13T05:10:10;101147.19;;;29.23
34807;BMP280;18310;55.586;12.286;2023-07-13T05:13:13;101158.53;;;29.53
34807;BMP280;18310;55.586;12.286;2023-07-13T05:16:16;101160.63;;;29.81
34807;BMP280;18310;55.586;12.286;2023-07-13T05:19:20;101162.25;;;30.03
34807;BMP280;18310;55.586;12.286;2023-07-13T05:22:24;101171.00;;;30.19
34807;BMP280;18310;55.586;12.286;2023-07-13T05:25:27;101161.41;;;30.11
34807;BMP280;18310;55.586;12.286;2023-07-13T05:28:32;101166.34;;;29.87
34807;BMP280;18310;55.586;12.286;2023-07-13T05:31:35;101171.28;;;29.54
34807;BMP280;18310;55.586;12.286;2023-07-13T05:34:40;101177.03;;;29.36
34807;BMP280;18310;55.586;12.286;2023-07-13T05:37:45;101173.06;;;29.18
34807;BMP280;18310;55.586;12.286;2023-07-13T05:40:49;101163.41;;;28.87
34807;BMP280;18310;55.586;12.286;2023-07-13T05:43:52;101170.28;;;28.44
34807;BMP280;18310;55.586;12.286;2023-07-13T05:46:55;101174.69;;;28.00
34807;BMP280;18310;55.586;12.286;2023-07-13T05:49:59;101176.06;;;27.59
34807;BMP280;18310;55.586;12.286;2023-07-13T05:53:06;101176.44;;;27.21
34807;BMP280;18310;55.586;12.286;2023-07-13T05:56:09;101180.69;;;26.95
34807;BMP280;18310;55.586;12.286;2023-07-13T05:59:12;101173.84;;;26.65
34807;BMP280;18310;55.586;12.286;2023-07-13T06:02:15;101171.16;;;26.52
34807;BMP280;18310;55.586;12.286;2023-07-13T06:05:19;101168.00;;;26.41
34807;BMP280;18310;55.586;12.286;2023-07-13T06:08:23;101173.88;;;26.43
34807;BMP280;18310;55.586;12.286;2023-07-13T06:11:28;101173.50;;;26.54
34807;BMP280;18310;55.586;12.286;2023-07-13T06:14:32;101178.84;;;27.01
34807;BMP280;18310;55.586;12.286;2023-07-13T06:17:35;101179.38;;;27.17
34807;BMP280;18310;55.586;12.286;2023-07-13T06:20:38;101169.47;;;27.26
34807;BMP280;18310;55.586;12.286;2023-07-13T06:23:43;101169.38;;;27.47
34807;BMP280;18310;55.586;12.286;2023-07-13T06:26:47;101159.44;;;27.73
34807;BMP280;18310;55.586;12.286;2023-07-13T06:29:50;101168.63;;;28.28
34807;BMP280;18310;55.586;12.286;2023-07-13T06:32:53;101157.31;;;28.97
34807;BMP280;18310;55.586;12.286;2023-07-13T06:35:56;101163.59;;;29.78
34807;BMP280;18310;55.586;12.286;2023-07-13T06:39:01;101164.59;;;30.48
34807;BMP280;18310;55.586;12.286;2023-07-13T06:42:05;101146.88;;;30.91
34807;BMP280;18310;55.586;12.286;2023-07-13T06:45:09;101166.81;;;30.93
34807;BMP280;18310;55.586;12.286;2023-07-13T06:48:13;101168.63;;;30.76
34807;BMP280;18310;55.586;12.286;2023-07-13T06:51:16;101162.38;;;30.52
34807;BMP280;18310;55.586;12.286;2023-07-13T06:54:20;101162.56;;;30.19
34807;BMP280;18310;55.586;12.286;2023-07-13T06:57:24;101171.06;;;29.81
34807;BMP280;18310;55.586;12.286;2023-07-13T07:00:28;101171.06;;;29.43
34807;BMP280;18310;55.586;12.286;2023-07-13T07:03:31;101171.06;;;29.19
34807;BMP280;18310;55.586;12.286;2023-07-13T07:06:34;101176.81;;;29.15
34807;BMP280;18310;55.586;12.286;2023-07-13T07:09:39;101172.88;;;29.46
34807;BMP280;18310;55.586;12.286;2023-07-13T07:12:42;101167.59;;;29.86
34807;BMP280;18310;55.586;12.286;2023-07-13T07:15:46;101166.06;;;30.00
34807;BMP280;18310;55.586;12.286;2023-07-13T07:18:49;101168.00;;;30.08
34807;BMP280;18310;55.586;12.286;2023-07-13T07:21:52;101168.50;;;30.07
34807;BMP280;18310;55.586;12.286;2023-07-13T07:24:57;101164.69;;;29.95
34807;BMP280;18310;55.586;12.286;2023-07-13T07:28:00;101170.31;;;29.95
34807;BMP280;18310;55.586;12.286;2023-07-13T07:31:06;101173.09;;;29.80
34807;BMP280;18310;55.586;12.286;2023-07-13T07:34:12;101153.47;;;29.57
34807;BMP280;18310;55.586;12.286;2023-07-13T07:37:16;101155.13;;;29.25
34807;BMP280;18310;55.586;12.286;2023-07-13T07:40:24;101155.13;;;28.92
34807;BMP280;18310;55.586;12.286;2023-07-13T07:43:30;101156.81;;;28.66
34807;BMP280;18310;55.586;12.286;2023-07-13T07:46:33;101158.75;;;28.42
34807;BMP280;18310;55.586;12.286;2023-07-13T07:49:37;101152.53;;;28.47
34807;BMP280;18310;55.586;12.286;2023-07-13T07:52:41;101146.75;;;28.50
34807;BMP280;18310;55.586;12.286;2023-07-13T07:55:47;101146.56;;;28.63
34807;BMP280;18310;55.586;12.286;2023-07-13T07:59:10;101144.16;;;28.80
34807;BMP280;18310;55.586;12.286;2023-07-13T08:02:17;101146.91;;;28.89
34807;BMP280;18310;55.586;12.286;2023-07-13T08:05:23;101153.59;;;28.91
34807;BMP280;18310;55.586;12.286;2023-07-13T08:08:44;101167.56;;;28.68
34807;BMP280;18310;55.586;12.286;2023-07-13T08:11:47;101169.38;;;28.38
34807;BMP280;18310;55.586;12.286;2023-07-13T08:14:54;101175.78;;;28.02
34807;BMP280;18310;55.586;12.286;2023-07-13T08:17:59;101178.25;;;27.64
34807;BMP280;18310;55.586;12.286;2023-07-13T08:21:04;101173.03;;;27.26
34807;BMP280;18310;55.586;12.286;2023-07-13T08:24:07;101177.19;;;26.82
34807;BMP280;18310;55.586;12.286;2023-07-13T08:27:11;101182.69;;;26.42
34807;BMP280;18310;55.586;12.286;2023-07-13T08:30:16;101184.66;;;26.11
34807;BMP280;18310;55.586;12.286;2023-07-13T08:33:20;101177.38;;;25.79
34807;BMP280;18310;55.586;12.286;2023-07-13T08:36:26;101170.63;;;25.55
34807;BMP280;18310;55.586;12.286;2023-07-13T08:39:30;101173.56;;;25.39
34807;BMP280;18310;55.586;12.286;2023-07-13T08:42:36;101169.31;;;25.34
34807;BMP280;18310;55.586;12.286;2023-07-13T08:45:43;101168.78;;;25.39
34807;BMP280;18310;55.586;12.286;2023-07-13T08:48:51;101165.50;;;25.53
34807;BMP280;18310;55.586;12.286;2023-07-13T08:51:59;101168.91;;;25.70
34807;BMP280;18310;55.586;12.286;2023-07-13T08:55:09;101165.97;;;25.86
34807;BMP280;18310;55.586;12.286;2023-07-13T08:58:15;101162.44;;;26.07
34807;BMP280;18310;55.586;12.286;2023-07-13T09:01:24;101179.97;;;26.29
34807;BMP280;18310;55.586;12.286;2023-07-13T09:04:36;101170.03;;;26.50
34807;BMP280;18310;55.586;12.286;2023-07-13T09:07:56;101163.47;;;26.66
34807;BMP280;18310;55.586;12.286;2023-07-13T09:11:10;101158.88;;;26.81
34807;BMP280;18310;55.586;12.286;2023-07-13T09:14:34;101154.31;;;26.96
34807;BMP280;18310;55.586;12.286;2023-07-13T09:17:47;101154.66;;;27.07
34807;BMP280;18310;55.586;12.286;2023-07-13T09:20:54;101166.31;;;27.14
34807;BMP280;18310;55.586;12.286;2023-07-13T09:24:00;101158.09;;;27.20
34807;BMP280;18310;55.586;12.286;2023-07-13T09:27:13;101169.00;;;27.27
34807;BMP280;18310;55.586;12.286;2023-07-13T09:30:24;101168.22;;;27.27
34807;BMP280;18310;55.586;12.286;2023-07-13T09:33:31;101173.03;;;27.26
34807;BMP280;18310;55.586;12.286;2023-07-13T09:36:34;101179.56;;;27.23
34807;BMP280;18310;55.586;12.286;2023-07-13T09:39:39;101182.03;;;27.21
34807;BMP280;18310;55.586;12.286;2023-07-13T09:43:13;101179.25;;;27.21
34807;BMP280;18310;55.586;12.286;2023-07-13T09:46:21;101183.03;;;27.45
34807;BMP280;18310;55.586;12.286;2023-07-13T09:49:25;101189.28;;;27.67
34807;BMP280;18310;55.586;12.286;2023-07-13T09:52:39;101179.19;;;27.70
34807;BMP280;18310;55.586;12.286;2023-07-13T09:55:44;101173.75;;;27.84
34807;BMP280;18310;55.586;12.286;2023-07-13T09:58:49;101173.59;;;27.97
34807;BMP280;18310;55.586;12.286;2023-07-13T10:01:53;101171.28;;;28.05
34807;BMP280;18310;55.586;12.286;2023-07-13T10:04:57;101164.91;;;28.04
34807;BMP280;18310;55.586;12.286;2023-07-13T10:08:01;101171.88;;;28.09
34807;BMP280;18310;55.586;12.286;2023-07-13T10:11:10;101173.75;;;28.03
34807;BMP280;18310;55.586;12.286;2023-07-13T10:14:17;101166.44;;;28.05
34807;BMP280;18310;55.586;12.286;2023-07-13T10:17:26;101167.53;;;28.08
34807;BMP280;18310;55.586;12.286;2023-07-13T10:20:32;101178.56;;;28.11
34807;BMP280;18310;55.586;12.286;2023-07-13T10:23:36;101175.94;;;28.08
34807;BMP280;18310;55.586;12.286;2023-07-13T10:26:45;101175.31;;;28.13
34807;BMP280;18310;55.586;12.286;2023-07-13T10:29:54;101179.50;;;28.17
34807;BMP280;18310;55.586;12.286;2023-07-13T10:33:01;101180.75;;;28.25
34807;BMP280;18310;55.586;12.286;2023-07-13T10:36:14;101174.78;;;28.32
34807;BMP280;18310;55.586;12.286;2023-07-13T10:39:23;101187.09;;;28.44
34807;BMP280;18310;55.586;12.286;2023-07-13T10:42:32;101175.25;;;28.49
34807;BMP280;18310;55.586;12.286;2023-07-13T10:45:37;101190.31;;;28.61
34807;BMP280;18310;55.586;12.286;2023-07-13T10:49:05;101189.50;;;28.69
34807;BMP280;18310;55.586;12.286;2023-07-13T10:52:43;101196.19;;;28.72
34807;BMP280;18310;55.586;12.286;2023-07-13T10:55:57;101189.78;;;28.71
34807;BMP280;18310;55.586;12.286;2023-07-13T10:59:09;101190.28;;;28.70
34807;BMP280;18310;55.586;12.286;2023-07-13T11:02:23;101188.56;;;28.72
34807;BMP280;18310;55.586;12.286;2023-07-13T11:05:32;101197.56;;;28.76
34807;BMP280;18310;55.586;12.286;2023-07-13T11:08:37;101196.47;;;28.83
34807;BMP280;18310;55.586;12.286;2023-07-13T11:11:40;101200.03;;;28.83
34807;BMP280;18310;55.586;12.286;2023-07-13T11:15:01;101196.78;;;28.76
34807;BMP280;18310;55.586;12.286;2023-07-13T11:18:19;101197.03;;;28.87
34807;BMP280;18310;55.586;12.286;2023-07-13T11:21:26;101201.56;;;28.93
34807;BMP280;18310;55.586;12.286;2023-07-13T11:24:49;101195.16;;;28.93
34807;BMP280;18310;55.586;12.286;2023-07-13T11:28:05;101193.19;;;28.84
34807;BMP280;18310;55.586;12.286;2023-07-13T11:31:15;101184.19;;;28.71
34807;BMP280;18310;55.586;12.286;2023-07-13T11:34:24;101199.72;;;28.81
34807;BMP280;18310;55.586;12.286;2023-07-13T11:37:32;101197.56;;;28.85
34807;BMP280;18310;55.586;12.286;2023-07-13T11:40:35;101199.84;;;28.87
34807;BMP280;18310;55.586;12.286;2023-07-13T11:43:38;101194.75;;;28.85
34807;BMP280;18310;55.586;12.286;2023-07-13T11:46:46;101190.66;;;28.86
34807;BMP280;18310;55.586;12.286;2023-07-13T11:49:55;101178.19;;;28.87
34807;BMP280;18310;55.586;12.286;2023-07-13T11:53:00;101199.03;;;28.95
34807;BMP280;18310;55.586;12.286;2023-07-13T11:56:06;101196.53;;;29.06
34807;BMP280;18310;55.586;12.286;2023-07-13T11:59:10;101196.03;;;29.08
34807;BMP280;18310;55.586;12.286;2023-07-13T12:02:19;101194.59;;;29.36
34807;BMP280;18310;55.586;12.286;2023-07-13T12:05:28;101204.31;;;29.59
34807;BMP280;18310;55.586;12.286;2023-07-13T12:08:39;101199.66;;;29.70
34807;BMP280;18310;55.586;12.286;2023-07-13T12:11:43;101194.91;;;29.62
34807;BMP280;18310;55.586;12.286;2023-07-13T12:14:50;101200.78;;;29.73
34807;BMP280;18310;55.586;12.286;2023-07-13T12:17:56;101198.59;;;29.68
34807;BMP280;18310;55.586;12.286;2023-07-13T12:20:59;101202.44;;;29.56
34807;BMP280;18310;55.586;12.286;2023-07-13T12:24:04;101202.19;;;29.68
34807;BMP280;18310;55.586;12.286;2023-07-13T12:27:18;101213.13;;;29.66
34807;BMP280;18310;55.586;12.286;2023-07-13T12:30:26;101226.44;;;29.57
34807;BMP280;18310;55.586;12.286;2023-07-13T12:33:32;101235.34;;;29.32
34807;BMP280;18310;55.586;12.286;2023-07-13T12:36:38;101244.31;;;29.12
34807;BMP280;18310;55.586;12.286;2023-07-13T12:39:46;101245.63;;;28.93
34807;BMP280;18310;55.586;12.286;2023-07-13T12:42:51;101240.19;;;28.80
34807;BMP280;18310;55.586;12.286;2023-07-13T12:45:56;101236.84;;;28.58
34807;BMP280;18310;55.586;12.286;2023-07-13T12:48:59;101241.56;;;28.34
34807;BMP280;18310;55.586;12.286;2023-07-13T12:52:21;101235.03;;;28.10
34807;BMP280;18310;55.586;12.286;2023-07-13T12:55:26;101244.03;;;27.96
34807;BMP280;18310;55.586;12.286;2023-07-13T12:58:37;101239.31;;;27.74
34807;BMP280;18310;55.586;12.286;2023-07-13T13:01:41;101242.88;;;27.57
34807;BMP280;18310;55.586;12.286;2023-07-13T13:04:44;101244.88;;;27.47
34807;BMP280;18310;55.586;12.286;2023-07-13T13:07:48;101242.31;;;27.31
34807;BMP280;18310;55.586;12.286;2023-07-13T13:10:53;101242.81;;;27.39
34807;BMP280;18310;55.586;12.286;2023-07-13T13:13:56;101239.91;;;27.51
34807;BMP280;18310;55.586;12.286;2023-07-13T13:16:59;101245.81;;;27.62
34807;BMP280;18310;55.586;12.286;2023-07-13T13:20:08;101237.16;;;27.69
34807;BMP280;18310;55.586;12.286;2023-07-13T13:23:18;101243.06;;;27.80
34807;BMP280;18310;55.586;12.286;2023-07-13T13:26:23;101228.78;;;27.87
34807;BMP280;18310;55.586;12.286;2023-07-13T13:29:26;101235.63;;;27.96
34807;BMP280;18310;55.586;12.286;2023-07-13T13:32:29;101233.00;;;28.01
34807;BMP280;18310;55.586;12.286;2023-07-13T13:35:54;101237.81;;;28.01
34807;BMP280;18310;55.586;12.286;2023-07-13T13:38:58;101238.63;;;28.01
34807;BMP280;18310;55.586;12.286;2023-07-13T13:42:03;101236.13;;;28.03
34807;BMP280;18310;55.586;12.286;2023-07-13T13:45:07;101235.63;;;27.96
34807;BMP280;18310;55.586;12.286;2023-07-13T13:48:14;101245.13;;;27.98
34807;BMP280;18310;55.586;12.286;2023-07-13T13:51:21;101240.44;;;27.95
34807;BMP280;18310;55.586;12.286;2023-07-13T13:54:25;101235.47;;;27.90
34807;BMP280;18310;55.586;12.286;2023-07-13T13:57:28;101229.75;;;27.94
34807;BMP280;18310;55.586;12.286;2023-07-13T14:00:33;101228.78;;;27.97
34807;BMP280;18310;55.586;12.286;2023-07-13T14:03:37;101223.81;;;28.01
34807;BMP280;18310;55.586;12.286;2023-07-13T14:06:41;101235.66;;;28.05
34807;BMP280;18310;55.586;12.286;2023-07-13T14:09:44;101228.50;;;28.13
34807;BMP280;18310;55.586;12.286;2023-07-13T14:12:51;101220.53;;;28.20
34807;BMP280;18310;55.586;12.286;2023-07-13T14:15:55;101227.88;;;28.27
34807;BMP280;18310;55.586;12.286;2023-07-13T14:18:58;101222.41;;;28.32
34807;BMP280;18310;55.586;12.286;2023-07-13T14:22:03;101222.09;;;28.39
34807;BMP280;18310;55.586;12.286;2023-07-13T14:25:08;101224.09;;;28.48
34807;BMP280;18310;55.586;12.286;2023-07-13T14:28:20;101229.84;;;28.53
34807;BMP280;18310;55.586;12.286;2023-07-13T14:31:42;101234.34;;;28.60
34807;BMP280;18310;55.586;12.286;2023-07-13T14:34:46;101241.34;;;28.65
34807;BMP280;18310;55.586;12.286;2023-07-13T14:37:50;101244.78;;;28.60
34807;BMP280;18310;55.586;12.286;2023-07-13T14:40:53;101259.09;;;28.52
34807;BMP280;18310;55.586;12.286;2023-07-13T14:43:56;101279.97;;;28.33
34807;BMP280;18310;55.586;12.286;2023-07-13T14:47:03;101294.72;;;27.98
34807;BMP280;18310;55.586;12.286;2023-07-13T14:50:13;101299.88;;;27.50
34807;BMP280;18310;55.586;12.286;2023-07-13T14:53:17;101300.97;;;26.91
34807;BMP280;18310;55.586;12.286;2023-07-13T14:56:20;101302.53;;;26.36
34807;BMP280;18310;55.586;12.286;2023-07-13T14:59:23;101299.53;;;25.84
34807;BMP280;18310;55.586;12.286;2023-07-13T15:02:31;101302.44;;;25.43
34807;BMP280;18310;55.586;12.286;2023-07-13T15:05:36;101297.94;;;25.20
34807;BMP280;18310;55.586;12.286;2023-07-13T15:08:39;101293.25;;;25.17
34807;BMP280;18310;55.586;12.286;2023-07-13T15:11:42;101298.41;;;25.18
34807;BMP280;18310;55.586;12.286;2023-07-13T15:14:45;101298.50;;;25.15
34807;BMP280;18310;55.586;12.286;2023-07-13T15:17:50;101296.34;;;25.06
34807;BMP280;18310;55.586;12.286;2023-07-13T15:20:54;101288.53;;;25.01
34807;BMP280;18310;55.586;12.286;2023-07-13T15:23:59;101285.84;;;24.98
34807;BMP280;18310;55.586;12.286;2023-07-13T15:27:07;101282.59;;;24.99
34807;BMP280;18310;55.586;12.286;2023-07-13T15:30:12;101288.31;;;25.08
34807;BMP280;18310;55.586;12.286;2023-07-13T15:33:21;101290.69;;;25.22
34807;BMP280;18310;55.586;12.286;2023-07-13T15:36:25;101289.38;;;25.27
34807;BMP280;18310;55.586;12.286;2023-07-13T15:39:28;101282.22;;;25.26
34807;BMP280;18310;55.586;12.286;2023-07-13T15:42:33;101281.56;;;25.35
34807;BMP280;18310;55.586;12.286;2023-07-13T15:45:39;101272.44;;;25.34
34807;BMP280;18310;55.586;12.286;2023-07-13T15:51:04;101272.09;;;25.32
34807;BMP280;18310;55.586;12.286;2023-07-13T15:54:13;101274.78;;;25.36
34807;BMP280;18310;55.586;12.286;2023-07-13T15:57:17;101270.22;;;25.42
34807;BMP280;18310;55.586;12.286;2023-07-13T16:00:22;101280.69;;;25.50
34807;BMP280;18310;55.586;12.286;2023-07-13T16:03:25;101290.41;;;25.58
34807;BMP280;18310;55.586;12.286;2023-07-13T16:06:34;101297.97;;;25.58
34807;BMP280;18310;55.586;12.286;2023-07-13T16:09:40;101298.78;;;25.58
34807;BMP280;18310;55.586;12.286;2023-07-13T16:12:44;101295.97;;;25.58
34807;BMP280;18310;55.586;12.286;2023-07-13T16:15:48;101287.50;;;25.62
34807;BMP280;18310;55.586;12.286;2023-07-13T16:18:52;101288.16;;;25.66
34807;BMP280;18310;55.586;12.286;2023-07-13T16:21:58;101292.66;;;25.76
34807;BMP280;18310;55.586;12.286;2023-07-13T16:25:12;101292.28;;;25.86
34807;BMP280;18310;55.586;12.286;2023-07-13T16:28:15;101287.81;;;25.89
34807;BMP280;18310;55.586;12.286;2023-07-13T16:31:18;101287.50;;;25.87
34807;BMP280;18310;55.586;12.286;2023-07-13T16:34:21;101277.91;;;25.88
34807;BMP280;18310;55.586;12.286;2023-07-13T16:37:28;101277.22;;;25.84
34807;BMP280;18310;55.586;12.286;2023-07-13T16:40:32;101285.00;;;26.02
34807;BMP280;18310;55.586;12.286;2023-07-13T16:43:36;101272.06;;;26.08
34807;BMP280;18310;55.586;12.286;2023-07-13T16:46:41;101283.41;;;26.13
34807;BMP280;18310;55.586;12.286;2023-07-13T16:49:45;101278.50;;;26.17
34807;BMP280;18310;55.586;12.286;2023-07-13T16:52:52;101277.34;;;26.27
34807;BMP280;18310;55.586;12.286;2023-07-13T16:55:56;101268.50;;;26.29
34807;BMP280;18310;55.586;12.286;2023-07-13T16:59:02;101281.56;;;26.44
34807;BMP280;18310;55.586;12.286;2023-07-13T17:02:31;101294.13;;;26.49
34807;BMP280;18310;55.586;12.286;2023-07-13T17:05:38;101294.81;;;26.53
34807;BMP280;18310;55.586;12.286;2023-07-13T17:08:44;101300.81;;;26.51
34807;BMP280;18310;55.586;12.286;2023-07-13T17:11:47;101289.94;;;26.44
34807;BMP280;18310;55.586;12.286;2023-07-13T17:14:52;101299.97;;;26.42
34807;BMP280;18310;55.586;12.286;2023-07-13T17:18:00;101302.78;;;26.29
34807;BMP280;18310;55.586;12.286;2023-07-13T17:21:13;101314.22;;;26.22
34807;BMP280;18310;55.586;12.286;2023-07-13T17:24:20;101314.78;;;26.17
34807;BMP280;18310;55.586;12.286;2023-07-13T17:27:47;101304.44;;;26.05